createdAt,value
2022-08-11T00:02:30.331Z,18.76
2022-08-11T00:05:08.305Z,18.76
2022-08-11T00:07:43.493Z,18.77
2022-08-11T00:10:13.779Z,18.70
2022-08-11T00:12:43.979Z,18.76
2022-08-11T00:15:13.823Z,18.58
2022-08-11T00:17:42.851Z,18.60
2022-08-11T00:20:16.881Z,18.66
2022-08-11T00:22:47.650Z,18.67
2022-08-11T00:25:18.006Z,18.71
2022-08-11T00:27:47.976Z,18.68
2022-08-11T00:30:17.031Z,18.73
2022-08-11T00:32:48.202Z,18.71
2022-08-11T00:35:52.012Z,18.69
2022-08-11T00:38:08.611Z,18.69
2022-08-11T00:40:43.258Z,18.58
2022-08-11T00:43:21.448Z,18.50
2022-08-11T00:46:11.158Z,18.37
2022-08-11T00:48:50.020Z,18.42
2022-08-11T00:51:27.946Z,18.41
2022-08-11T00:54:42.188Z,18.34
2022-08-11T00:57:38.248Z,18.36
2022-08-11T01:00:25.128Z,18.39
2022-08-11T01:03:19.017Z,18.41
2022-08-11T01:06:08.098Z,18.43
2022-08-11T01:09:03.934Z,18.41
2022-08-11T01:11:55.445Z,18.40
2022-08-11T01:15:05.841Z,18.45
2022-08-11T01:18:07.182Z,18.49
2022-08-11T01:21:18.457Z,18.56
2022-08-11T01:24:42.177Z,18.58
2022-08-11T01:27:41.688Z,18.57
2022-08-11T01:30:46.033Z,18.55
2022-08-11T01:34:15.489Z,18.53
2022-08-11T01:37:07.955Z,18.39
2022-08-11T01:40:18.565Z,18.33
2022-08-11T01:43:29.333Z,18.22
2022-08-11T01:46:01.698Z,18.24
2022-08-11T01:48:42.312Z,18.20
2022-08-11T01:51:22.018Z,18.31
2022-08-11T01:54:00.673Z,18.33
2022-08-11T01:56:41.431Z,18.33
2022-08-11T01:59:19.352Z,18.35
2022-08-11T02:02:16.639Z,18.34
2022-08-11T02:05:00.745Z,18.17
2022-08-11T02:07:34.494Z,18.37
2022-08-11T02:10:36.693Z,18.29
2022-08-11T02:13:16.818Z,18.33
2022-08-11T02:15:51.599Z,18.39
2022-08-11T02:18:48.956Z,18.36
2022-08-11T02:21:43.444Z,18.31
2022-08-11T02:24:21.681Z,18.25
2022-08-11T02:27:01.654Z,18.29
2022-08-11T02:29:36.636Z,18.22
2022-08-11T02:32:31.234Z,18.27
2022-08-11T02:35:11.379Z,18.27
2022-08-11T02:37:51.485Z,18.12
2022-08-11T02:40:26.028Z,18.15
2022-08-11T02:43:10.667Z,18.12
2022-08-11T02:45:50.111Z,18.11
2022-08-11T02:48:57.186Z,18.02
2022-08-11T02:51:31.371Z,18.10
2022-08-11T02:54:09.851Z,18.08
2022-08-11T02:56:46.448Z,18.08
2022-08-11T02:59:47.005Z,18.00
2022-08-11T03:02:23.487Z,18.04
2022-08-11T03:05:04.285Z,18.05
2022-08-11T03:07:39.616Z,18.03
2022-08-11T03:10:11.651Z,17.98
2022-08-11T03:13:06.313Z,18.01
2022-08-11T03:16:01.784Z,17.90
2022-08-11T03:18:39.479Z,17.95
2022-08-11T03:21:14.517Z,17.90
2022-08-11T03:23:51.721Z,17.89
2022-08-11T03:26:28.233Z,17.85
2022-08-11T03:29:06.387Z,17.80
2022-08-11T03:31:46.074Z,17.79
2022-08-11T03:34:16.513Z,17.84
2022-08-11T03:37:40.657Z,17.82
2022-08-11T03:40:41.369Z,17.80
2022-08-11T03:43:20.191Z,17.80
2022-08-11T03:45:59.195Z,17.86
2022-08-11T03:48:40.739Z,17.77
2022-08-11T03:51:19.824Z,17.84
2022-08-11T03:54:11.193Z,17.85
2022-08-11T03:57:12.674Z,17.96
2022-08-11T04:00:28.992Z,18.01
2022-08-11T04:03:33.809Z,17.96
2022-08-11T04:06:32.146Z,17.96
2022-08-11T04:09:36.977Z,18.04
2022-08-11T04:12:47.186Z,18.03
2022-08-11T04:15:56.198Z,18.03
2022-08-11T04:18:51.911Z,18.03
2022-08-11T04:21:42.051Z,18.10
2022-08-11T04:24:58.422Z,18.11
2022-08-11T04:27:50.076Z,18.14
2022-08-11T04:30:28.619Z,18.21
2022-08-11T04:33:36.518Z,18.21
2022-08-11T04:36:42.918Z,18.18
2022-08-11T04:39:24.083Z,18.20
2022-08-11T04:42:57.346Z,18.27
2022-08-11T04:45:41.819Z,18.28
2022-08-11T04:49:06.318Z,18.37
2022-08-11T04:52:37.480Z,18.36
2022-08-11T04:55:47.650Z,18.37
2022-08-11T04:58:39.979Z,18.50
2022-08-11T05:01:43.895Z,18.56
2022-08-11T05:04:55.498Z,18.59
2022-08-11T05:07:59.304Z,18.51
2022-08-11T05:10:48.718Z,18.56
2022-08-11T05:13:46.461Z,18.47
2022-08-11T05:16:37.589Z,18.65
2022-08-11T05:19:24.253Z,18.75
2022-08-11T05:22:22.682Z,18.78
2022-08-11T05:26:42.545Z,18.79
2022-08-11T05:28:30.531Z,18.84
2022-08-11T05:31:19.339Z,18.80
2022-08-11T05:36:45.720Z,18.79
2022-08-11T05:39:36.655Z,18.65
2022-08-11T05:42:30.527Z,18.54
2022-08-11T05:45:23.132Z,18.56
2022-08-11T05:48:09.179Z,18.60
2022-08-11T05:50:55.399Z,18.65
2022-08-11T05:53:46.075Z,18.75
2022-08-11T05:56:19.013Z,18.79
2022-08-11T05:58:50.692Z,18.88
2022-08-11T06:01:26.318Z,19.02
2022-08-11T06:04:15.858Z,19.16
2022-08-11T06:06:53.002Z,19.25
2022-08-11T06:09:33.908Z,19.36
2022-08-11T06:12:08.106Z,19.42
2022-08-11T06:14:42.732Z,19.52
2022-08-11T06:17:13.822Z,19.68
2022-08-11T06:19:43.988Z,19.77
2022-08-11T06:22:13.625Z,19.80
2022-08-11T06:24:52.265Z,19.65
2022-08-11T06:27:22.602Z,19.93
2022-08-11T06:29:54.952Z,20.11
2022-08-11T06:32:28.998Z,20.18
2022-08-11T06:35:09.890Z,20.30
2022-08-11T06:37:46.798Z,20.44
2022-08-11T06:40:28.838Z,20.55
2022-08-11T06:43:02.391Z,20.56
2022-08-11T06:45:36.339Z,20.69
2022-08-11T06:48:10.268Z,20.68
2022-08-11T06:50:56.657Z,20.69
2022-08-11T06:53:25.212Z,20.87
2022-08-11T06:56:16.758Z,20.96
2022-08-11T06:59:01.823Z,21.12
2022-08-11T07:01:47.732Z,21.29
2022-08-11T07:04:24.709Z,21.43
2022-08-11T07:07:27.180Z,21.51
2022-08-11T07:10:38.233Z,21.66
2022-08-11T07:13:44.559Z,21.82
2022-08-11T07:16:15.716Z,21.87
2022-08-11T07:19:02.930Z,21.94
2022-08-11T07:22:02.566Z,22.05
2022-08-11T07:24:59.561Z,22.02
2022-08-11T07:27:54.737Z,21.99
2022-08-11T07:30:23.444Z,22.00
2022-08-11T07:32:54.169Z,21.97
2022-08-11T07:35:27.909Z,21.92
2022-08-11T07:38:05.682Z,22.11
2022-08-11T07:40:36.395Z,22.27
2022-08-11T07:43:05.714Z,22.38
2022-08-11T07:45:52.909Z,22.28
2022-08-11T07:48:39.898Z,22.40
2022-08-11T07:51:25.964Z,22.35
2022-08-11T07:53:58.261Z,22.42
2022-08-11T07:56:55.605Z,22.50
2022-08-11T08:00:04.342Z,22.52
2022-08-11T08:02:50.171Z,22.59
2022-08-11T08:05:37.367Z,22.39
2022-08-11T08:08:23.879Z,22.39
2022-08-11T08:11:13.132Z,22.64
2022-08-11T08:13:59.480Z,22.76
2022-08-11T08:16:45.567Z,22.93
2022-08-11T08:19:16.184Z,23.09
2022-08-11T08:21:45.676Z,23.28
2022-08-11T08:24:14.457Z,23.41
2022-08-11T08:27:00.759Z,23.67
2022-08-11T08:29:49.996Z,23.72
2022-08-11T08:32:19.912Z,23.88
2022-08-11T08:34:50.730Z,23.89
2022-08-11T08:37:46.087Z,23.90
2022-08-11T08:40:10.508Z,23.95
2022-08-11T08:42:47.515Z,23.84
2022-08-11T08:45:18.476Z,23.64
2022-08-11T08:47:53.486Z,23.44
2022-08-11T08:50:47.026Z,23.51
2022-08-11T08:53:16.856Z,23.70
2022-08-11T08:55:47.428Z,23.97
2022-08-11T08:58:19.995Z,23.92
2022-08-11T09:00:51.672Z,23.96
2022-08-11T09:03:41.828Z,24.07
2022-08-11T09:06:09.478Z,24.30
2022-08-11T09:08:40.032Z,24.35
2022-08-11T09:11:25.475Z,24.51
2022-08-11T09:14:05.128Z,24.32
2022-08-11T09:16:35.244Z,24.33
2022-08-11T09:19:04.094Z,24.15
2022-08-11T09:21:49.173Z,24.07
2022-08-11T09:24:36.344Z,24.15
2022-08-11T09:27:07.632Z,24.16
2022-08-11T09:29:39.306Z,24.37
2022-08-11T09:32:08.898Z,24.47
2022-08-11T09:34:38.654Z,24.70
2022-08-11T09:37:53.274Z,25.06
2022-08-11T09:40:33.871Z,24.79
2022-08-11T09:43:23.507Z,24.55
2022-08-11T09:45:55.060Z,24.45
2022-08-11T09:48:25.571Z,24.43
2022-08-11T09:50:56.832Z,24.70
2022-08-11T09:53:36.792Z,24.77
2022-08-11T09:56:30.680Z,24.84
2022-08-11T09:58:59.980Z,24.70
2022-08-11T10:01:32.693Z,24.73
2022-08-11T10:04:05.018Z,24.76
2022-08-11T10:06:54.459Z,24.89
2022-08-11T10:09:25.603Z,25.04
2022-08-11T10:11:58.848Z,25.10
2022-08-11T10:14:46.501Z,25.17
2022-08-11T10:17:18.917Z,25.26
2022-08-11T10:20:05.485Z,25.38
2022-08-11T10:22:53.051Z,25.67
2022-08-11T10:25:39.833Z,25.75
2022-08-11T10:28:30.372Z,25.38
2022-08-11T10:31:17.110Z,25.44
2022-08-11T10:34:03.784Z,25.33
2022-08-11T10:36:33.786Z,25.18
2022-08-11T10:39:03.538Z,25.21
2022-08-11T10:42:07.250Z,25.61
2022-08-11T10:44:40.397Z,25.94
2022-08-11T10:47:28.946Z,25.90
2022-08-11T10:50:16.283Z,26.50
2022-08-11T10:53:05.069Z,27.13
2022-08-11T10:55:51.229Z,27.62
2022-08-11T10:58:37.316Z,28.23
2022-08-11T11:01:06.110Z,28.60
2022-08-11T11:03:36.754Z,28.79
2022-08-11T11:06:27.488Z,28.97
2022-08-11T11:09:04.582Z,29.05
2022-08-11T11:11:55.867Z,29.06
2022-08-11T11:14:50.693Z,29.67
2022-08-11T11:17:46.368Z,28.81
2022-08-11T11:20:35.900Z,28.68
2022-08-11T11:23:12.478Z,28.62
2022-08-11T11:26:07.461Z,28.74
2022-08-11T11:29:20.617Z,29.44
2022-08-11T11:31:58.899Z,29.62
2022-08-11T11:34:47.936Z,29.25
2022-08-11T11:37:22.145Z,29.01
2022-08-11T11:39:52.319Z,28.54
2022-08-11T11:42:22.393Z,28.31
2022-08-11T11:44:55.294Z,28.30
2022-08-11T11:47:24.826Z,28.24
2022-08-11T11:49:54.413Z,29.03
2022-08-11T11:52:23.705Z,29.67
2022-08-11T11:55:00.408Z,30.28
2022-08-11T11:57:58.618Z,31.03
2022-08-11T12:00:48.365Z,30.73
2022-08-11T12:03:17.907Z,30.92
2022-08-11T12:05:47.048Z,30.85
2022-08-11T12:08:17.654Z,30.99
2022-08-11T12:10:50.344Z,31.05
2022-08-11T12:13:37.445Z,31.45
2022-08-11T12:16:33.124Z,31.71
2022-08-11T12:18:57.805Z,31.16
2022-08-11T12:21:27.510Z,30.46
2022-08-11T12:24:16.163Z,29.76
2022-08-11T12:27:14.849Z,29.11
2022-08-11T12:29:45.791Z,29.00
2022-08-11T12:32:14.492Z,28.63
2022-08-11T12:34:42.581Z,28.66
2022-08-11T12:37:13.649Z,29.07
2022-08-11T12:40:16.170Z,29.72
2022-08-11T12:43:21.195Z,29.43
2022-08-11T12:45:58.418Z,28.57
2022-08-11T12:48:59.636Z,28.40
2022-08-11T12:52:11.080Z,27.35
2022-08-11T12:54:52.170Z,27.23
2022-08-11T12:57:44.077Z,27.17
2022-08-11T13:00:32.672Z,27.67
2022-08-11T13:03:18.900Z,28.66
2022-08-11T13:05:49.603Z,29.43
2022-08-11T13:08:18.776Z,29.90
2022-08-11T13:11:05.216Z,30.55
2022-08-11T13:13:52.829Z,31.00
2022-08-11T13:16:24.916Z,31.42
2022-08-11T13:18:53.925Z,31.65
2022-08-11T13:21:24.009Z,32.01
2022-08-11T13:24:01.719Z,31.63
2022-08-11T13:26:47.226Z,30.98
2022-08-11T13:29:19.786Z,30.94
2022-08-11T13:31:51.739Z,31.43
2022-08-11T13:34:21.524Z,31.40
2022-08-11T13:36:52.234Z,31.44
2022-08-11T13:39:24.280Z,31.83
2022-08-11T13:41:56.882Z,31.94
2022-08-11T13:44:28.455Z,32.44
2022-08-11T13:47:01.384Z,32.53
2022-08-11T13:49:31.887Z,32.62
2022-08-11T13:52:00.946Z,32.58
2022-08-11T13:54:33.596Z,32.31
2022-08-11T13:57:09.308Z,32.18
2022-08-11T13:59:51.990Z,32.34
2022-08-11T14:02:30.755Z,32.27
2022-08-11T14:05:02.811Z,32.65
2022-08-11T14:07:36.762Z,33.11
2022-08-11T14:10:08.033Z,33.09
2022-08-11T14:12:55.343Z,33.18
2022-08-11T14:15:26.625Z,33.66
2022-08-11T14:18:01.667Z,34.11
2022-08-11T14:20:53.136Z,33.70
2022-08-11T14:23:27.056Z,33.61
2022-08-11T14:26:13.626Z,32.91
2022-08-11T14:28:44.948Z,32.97
2022-08-11T14:31:15.542Z,33.06
2022-08-11T14:33:59.447Z,32.93
2022-08-11T14:36:32.805Z,33.21
2022-08-11T14:39:04.407Z,32.67
2022-08-11T14:42:09.788Z,32.54
2022-08-11T14:44:58.078Z,32.26
2022-08-11T14:47:26.969Z,32.47
2022-08-11T14:50:10.849Z,32.81
2022-08-11T14:52:49.963Z,32.88
2022-08-11T14:55:36.376Z,33.16
2022-08-11T14:58:05.323Z,33.14
2022-08-11T15:00:35.288Z,33.30
2022-08-11T15:03:13.867Z,33.22
2022-08-11T15:05:57.377Z,33.34
2022-08-11T15:08:49.027Z,32.97
2022-08-11T15:11:36.720Z,32.83
2022-08-11T15:14:07.260Z,32.28
2022-08-11T15:16:55.025Z,31.58
2022-08-11T15:19:23.321Z,30.87
2022-08-11T15:22:10.440Z,30.12
2022-08-11T15:24:38.865Z,29.79
2022-08-11T15:27:31.063Z,29.87
2022-08-11T15:30:29.957Z,30.24
2022-08-11T15:33:20.040Z,29.97
2022-08-11T15:36:05.670Z,29.80
2022-08-11T15:38:41.135Z,29.68
2022-08-11T15:41:29.473Z,29.54
2022-08-11T15:44:15.808Z,29.12
2022-08-11T15:46:48.434Z,28.79
2022-08-11T15:49:23.715Z,28.12
2022-08-11T15:52:02.037Z,27.93
2022-08-11T15:54:33.621Z,27.71
2022-08-11T15:57:03.477Z,27.55
2022-08-11T15:59:53.092Z,27.31
2022-08-11T16:02:41.253Z,27.12
2022-08-11T16:05:14.310Z,26.88
2022-08-11T16:08:03.101Z,26.56
2022-08-11T16:10:34.345Z,26.54
2022-08-11T16:13:18.059Z,26.36
2022-08-11T16:16:07.623Z,26.29
2022-08-11T16:18:44.274Z,26.22
2022-08-11T16:21:26.260Z,26.16
2022-08-11T16:24:05.968Z,26.06
2022-08-11T16:27:11.282Z,26.01
2022-08-11T16:29:31.783Z,26.11
2022-08-11T16:32:20.769Z,26.13
2022-08-11T16:35:11.400Z,26.13
2022-08-11T16:37:58.940Z,26.13
2022-08-11T16:40:27.392Z,26.13
2022-08-11T16:43:16.512Z,26.19
2022-08-11T16:46:04.034Z,26.38
2022-08-11T16:48:38.218Z,26.60
2022-08-11T16:51:08.307Z,26.86
2022-08-11T16:53:59.779Z,27.04
2022-08-11T16:56:30.841Z,27.18
2022-08-11T16:59:15.526Z,27.27
2022-08-11T17:01:48.412Z,27.29
2022-08-11T17:04:39.400Z,27.16
2022-08-11T17:07:42.287Z,27.16
2022-08-11T17:10:52.900Z,26.95
2022-08-11T17:13:29.335Z,26.73
2022-08-11T17:16:11.731Z,26.26
2022-08-11T17:18:48.686Z,26.00
2022-08-11T17:21:20.377Z,25.90
2022-08-11T17:23:52.202Z,25.72
2022-08-11T17:26:48.332Z,25.76
2022-08-11T17:29:18.448Z,25.63
2022-08-11T17:32:06.639Z,25.55
2022-08-11T17:34:52.856Z,25.52
2022-08-11T17:37:22.975Z,25.48
2022-08-11T17:39:52.671Z,25.30
2022-08-11T17:42:41.717Z,25.30
2022-08-11T17:45:40.706Z,25.24
2022-08-11T17:48:26.501Z,25.07
2022-08-11T17:50:57.192Z,25.02
2022-08-11T17:54:18.171Z,25.03
2022-08-11T17:56:51.175Z,24.93
2022-08-11T17:59:37.898Z,24.95
2022-08-11T18:02:21.459Z,24.91
2022-08-11T18:05:12.246Z,24.83
2022-08-11T18:07:59.804Z,24.80
2022-08-11T18:10:47.536Z,24.73
2022-08-11T18:13:34.502Z,24.74
2022-08-11T18:16:20.005Z,24.69
2022-08-11T18:19:05.894Z,24.72
2022-08-11T18:22:03.549Z,24.66
2022-08-11T18:25:05.549Z,24.66
2022-08-11T18:27:53.823Z,24.56
2022-08-11T18:30:39.621Z,24.55
2022-08-11T18:36:38.528Z,24.35
2022-08-11T18:39:28.318Z,24.39
2022-08-11T18:42:19.583Z,24.37
2022-08-11T18:45:19.290Z,24.36
2022-08-11T18:48:09.211Z,24.32
2022-08-11T18:51:31.098Z,24.32
2022-08-11T18:54:10.791Z,24.20
2022-08-11T18:56:59.782Z,24.16
2022-08-11T18:59:47.281Z,24.12
2022-08-11T19:02:49.145Z,23.96
2022-08-11T19:06:35.889Z,23.97
2022-08-11T19:08:47.913Z,23.93
2022-08-11T19:11:34.281Z,23.93
2022-08-11T19:14:29.207Z,23.88
2022-08-11T19:17:44.949Z,23.91
2022-08-11T19:20:23.443Z,23.87
2022-08-11T19:23:11.145Z,23.83
2022-08-11T19:25:58.652Z,23.75
2022-08-11T19:28:45.084Z,23.74
2022-08-11T19:31:33.300Z,23.48
2022-08-11T19:34:21.266Z,23.44
2022-08-11T19:37:07.496Z,23.37
2022-08-11T19:39:54.165Z,23.23
2022-08-11T19:42:41.034Z,23.12
2022-08-11T19:45:26.990Z,23.07
2022-08-11T19:48:31.152Z,23.08
2022-08-11T19:51:18.596Z,23.04
2022-08-11T19:54:06.392Z,23.02
2022-08-11T19:56:53.286Z,23.09
2022-08-11T19:59:41.089Z,23.02
2022-08-11T20:02:26.520Z,22.98
2022-08-11T20:05:13.149Z,22.90
2022-08-11T20:08:00.311Z,22.88
2022-08-11T20:10:48.289Z,22.93
2022-08-11T20:13:35.921Z,22.91
2022-08-11T20:16:28.110Z,22.86
2022-08-11T20:19:13.939Z,22.90
2022-08-11T20:22:05.970Z,22.83
2022-08-11T20:24:54.911Z,22.85
2022-08-11T20:27:43.423Z,22.83
2022-08-11T20:30:29.949Z,22.82
2022-08-11T20:33:16.356Z,22.79
2022-08-11T20:36:02.093Z,22.84
2022-08-11T20:38:51.912Z,22.76
2022-08-11T20:41:58.890Z,22.63
2022-08-11T20:44:46.062Z,22.52
2022-08-11T20:47:33.874Z,22.44
2022-08-11T20:50:40.792Z,22.46
2022-08-11T20:53:27.814Z,22.35
2022-08-11T20:56:17.146Z,22.33
2022-08-11T20:59:21.760Z,22.32
2022-08-11T21:02:10.517Z,22.29
2022-08-11T21:04:57.917Z,22.31
2022-08-11T21:10:59.832Z,22.26
2022-08-11T21:13:51.289Z,22.29
2022-08-11T21:16:47.447Z,22.27
2022-08-11T21:20:06.967Z,22.15
2022-08-11T21:22:59.237Z,22.05
2022-08-11T21:25:55.349Z,22.02
2022-08-11T21:28:50.426Z,22.02
2022-08-11T21:31:38.676Z,21.99
2022-08-11T21:34:27.295Z,21.94
2022-08-11T21:37:12.845Z,21.91
2022-08-11T21:40:00.316Z,21.82
2022-08-11T21:42:47.577Z,21.75
2022-08-11T21:45:36.438Z,21.73
2022-08-11T21:48:24.437Z,21.69
2022-08-11T21:51:09.784Z,21.63
2022-08-11T21:53:56.344Z,21.61
2022-08-11T21:56:43.468Z,21.55
2022-08-11T21:59:29.903Z,21.48
2022-08-11T22:02:17.818Z,21.43
2022-08-11T22:05:03.980Z,21.36
2022-08-11T22:07:50.409Z,21.40
2022-08-11T22:10:42.297Z,21.40
2022-08-11T22:13:30.085Z,21.35
2022-08-11T22:16:15.697Z,21.31
2022-08-11T22:19:03.742Z,21.28
2022-08-11T22:22:02.446Z,21.29
2022-08-11T22:24:51.017Z,21.19
2022-08-11T22:27:36.480Z,21.18
2022-08-11T22:30:22.171Z,21.27
2022-08-11T22:33:07.757Z,21.17
2022-08-11T22:35:56.789Z,21.21
2022-08-11T22:38:43.092Z,21.21
2022-08-11T22:41:28.907Z,21.16
2022-08-11T22:44:14.991Z,21.20
2022-08-11T22:47:00.584Z,21.12
2022-08-11T22:49:57.080Z,21.09
2022-08-11T22:52:46.430Z,21.04
2022-08-11T22:55:32.988Z,21.08
2022-08-11T22:58:20.144Z,21.16
2022-08-11T23:01:05.936Z,21.20
2022-08-11T23:03:52.468Z,21.18
2022-08-11T23:06:38.453Z,21.10
2022-08-11T23:09:26.972Z,21.13
2022-08-11T23:12:13.266Z,21.07
2022-08-11T23:14:59.948Z,21.08
2022-08-11T23:17:46.223Z,21.09
2022-08-11T23:20:37.015Z,21.01
2022-08-11T23:23:27.954Z,20.98
2022-08-11T23:26:15.823Z,21.05
2022-08-11T23:29:05.228Z,21.04
2022-08-11T23:31:54.438Z,21.00
2022-08-11T23:35:04.414Z,20.98
2022-08-11T23:37:48.492Z,20.99
2022-08-11T23:40:34.405Z,20.99
2022-08-11T23:43:21.859Z,20.99
2022-08-11T23:46:07.161Z,20.97
2022-08-11T23:48:54.944Z,21.01
2022-08-11T23:51:41.665Z,21.03
2022-08-11T23:54:27.720Z,21.09
2022-08-11T23:57:13.469Z,21.08
